Flight Track Log - Related Links

Times and Time Zones

All times are in EDT time to prevent confusion due to time zone crossing. See the IRO9131 flight status page for this flight to view local times or setup timezone preferences in your user account.

Time Position Orientation Groundspeed Altitude Reporting Facility
EDT Latitude Longitude Course Direction KTS MPH feet Rate Location/Type
Tue 07:35:00 PM 46.3431 -87.3975 187° South 77 89 1,200  Level Minneapolis Center
Tue 07:36:02 PM 46.3197 -87.4014 187° South 83 96 2,500 1,122 Climbing Minneapolis Center
Tue 07:37:03 PM 46.2975 -87.4075 191° South 92 106 3,500 1,171 Climbing Minneapolis Center
Tue 07:38:05 PM 46.2681 -87.4308 209° Southwest 96 110 4,900 1,065 Climbing Minneapolis Center
Tue 07:39:07 PM 46.2489 -87.4411 200° South 94 108 5,700 926 Climbing Minneapolis Center
Tue 07:40:21 PM 46.2189 -87.4503 192° South 92 106 7,000 1,103 Climbing Minneapolis Center
Tue 07:41:23 PM 46.1878 -87.4517 182° South 88 101 8,200 1,016 Climbing Minneapolis Center
Tue 07:42:25 PM 46.1644 -87.4567 188° South 84 97 9,100 732 Climbing Minneapolis Center
Tue 07:43:26 PM 46.1447 -87.4614 189° South 91 105 9,700 780 Climbing Minneapolis Center
Tue 07:44:28 PM 46.1125 -87.4697 190° South 97 112 10,700 629 Climbing Minneapolis Center
Tue 07:45:30 PM 46.0811 -87.4803 193° South 115 132 11,000 146 Climbing Minneapolis Center
Tue 07:46:31 PM 46.0386 -87.4914 190° South 151 174 11,000 -49 Level Minneapolis Center
Tue 07:47:33 PM 45.9922 -87.5006 188° South 165 190 10,900 -48 Descending Minneapolis Center
Tue 07:48:35 PM 45.9469 -87.5125 190° South 163 188 10,900 49 Level Minneapolis Center
Tue 07:49:36 PM 45.9083 -87.5225 190° South 164 189 11,000 49 Climbing Minneapolis Center
Tue 07:50:38 PM 45.8528 -87.5350 189° South 162 186 11,000  Level Minneapolis Center
Tue 07:51:40 PM 45.8075 -87.5472 191° South 162 186 11,000  Level Minneapolis Center
Tue 07:52:41 PM 45.7717 -87.5533 187° South 166 191 11,000  Level Minneapolis Center
Tue 07:53:44 PM 45.7161 -87.5700 192° South 164 189 11,000 -48 Level Minneapolis Center
Tue 07:54:45 PM 45.6697 -87.5808 189° South 165 190 10,900  Descending Minneapolis Center
Tue 07:55:47 PM 45.6244 -87.5911 189° South 163 188 11,000 48 Climbing Minneapolis Center
Tue 07:56:49 PM 45.5789 -87.6019 189° South 164 189 11,000  Level Minneapolis Center
Tue 07:57:50 PM 45.5336 -87.6136 190° South 163 188 11,000 -49 Level Minneapolis Center
Tue 07:58:52 PM 45.4858 -87.6275 192° South 160 184 10,900 -48 Descending Minneapolis Center
Tue 07:59:54 PM 45.4411 -87.6378 189° South 163 188 10,900  Level Minneapolis Center
Tue 08:00:56 PM 45.3972 -87.6514 192° South 162 186 10,900  Level Minneapolis Center
Tue 08:01:57 PM 45.3608 -87.6606 190° South 164 189 10,900  Level Minneapolis Center
Tue 08:03:11 PM 45.2978 -87.6781 191° South 166 191 10,900  Level Minneapolis Center
Tue 08:04:13 PM 45.2519 -87.6875 188° South 167 192 10,900  Level Minneapolis Center
Tue 08:05:15 PM 45.2083 -87.6983 190° South 163 188 10,900  Level Minneapolis Center
Tue 08:06:17 PM 45.1536 -87.7117 190° South 165 190 10,900  Level Minneapolis Center
Tue 08:07:19 PM 45.1083 -87.7242 191° South 166 191 10,900  Level Minneapolis Center
Tue 08:08:20 PM 45.0628 -87.7344 189° South 165 190 10,900  Level Minneapolis Center
Tue 08:09:22 PM 45.0169 -87.7447 189° South 167 192 10,900  Level Minneapolis Center
Tue 08:10:24 PM 44.9714 -87.7567 191° South 167 192 10,900  Level Minneapolis Center
Tue 08:11:26 PM 44.9269 -87.7669 189° South 165 190 10,900  Level Minneapolis Center
Tue 08:12:28 PM 44.8722 -87.7806 190° South 166 191 10,900  Level Minneapolis Center
Tue 08:13:29 PM 44.8272 -87.7917 190° South 165 190 10,900  Level Minneapolis Center
Tue 08:14:31 PM 44.7825 -87.8025 190° South 165 190 10,900  Level Minneapolis Center
Tue 08:15:32 PM 44.7453 -87.8122 191° South 167 192 10,900  Level Minneapolis Center
Tue 08:16:35 PM 44.6900 -87.8236 188° South 168 193 10,900  Level Minneapolis Center
Tue 08:17:36 PM 44.6453 -87.8344 190° South 164 189 10,900  Level Minneapolis Center
Tue 08:18:38 PM 44.5994 -87.8458 190° South 166 191 10,900  Level Minneapolis Center
Tue 08:19:40 PM 44.5458 -87.8600 191° South 164 189 10,900  Level Minneapolis Center
Tue 08:20:42 PM 44.5014 -87.8700 189° South 163 188 10,900 48 Level Minneapolis Center
Tue 08:21:44 PM 44.4608 -87.8786 189° South 162 186 11,000 49 Climbing Minneapolis Center
Tue 08:22:45 PM 44.4083 -87.8914 190° South 164 189 11,000  Level Minneapolis Center
Tue 08:23:47 PM 44.3642 -87.9008 189° South 162 186 11,000  Level Minneapolis Center
Tue 08:24:49 PM 44.3186 -87.9133 191° South 165 190 11,000  Level Minneapolis Center
Tue 08:25:51 PM 44.2733 -87.9231 189° South 165 190 11,000  Level Minneapolis Center
Tue 08:26:53 PM 44.2264 -87.9356 191° South 169 194 11,000  Level Minneapolis Center
Tue 08:27:55 PM 44.1803 -87.9458 189° South 169 194 11,000  Level Minneapolis Center
Tue 08:28:56 PM 44.1258 -87.9583 189° South 169 194 11,000  Level Minneapolis Center
Tue 08:29:58 PM 44.0794 -87.9681 189° South 169 194 11,000  Level Minneapolis Center
Tue 08:31:00 PM 44.0339 -87.9814 192° South 167 192 11,000  Level Minneapolis Center
Tue 08:32:02 PM 43.9883 -87.9925 190° South 166 191 11,000  Level Minneapolis Center
Tue 08:33:15 PM 43.9428 -88.0019 188° South 165 190 11,000  Level Minneapolis Center
Tue 08:34:18 PM 43.8811 -88.0167 190° South 168 193 11,000  Level Minneapolis Center
Tue 08:35:19 PM 43.8422 -88.0267 191° South 170 196 11,000  Level Minneapolis Center
Tue 08:36:21 PM 43.7881 -88.0381 189° South 169 194 11,000  Level Minneapolis Center
Tue 08:37:23 PM 43.7422 -88.0483 189° South 167 192 11,000  Level Minneapolis Center
Tue 08:38:25 PM 43.6950 -88.0600 190° South 171 197 11,000  Level Minneapolis Center
Tue 08:39:27 PM 43.6472 -88.0714 190° South 173 199 11,000  Level Minneapolis Center
Tue 08:40:41 PM 43.5919 -88.0853 190° South 173 199 11,000 45 Level Minneapolis Center
Tue 08:41:39 PM 43.5333 -88.1000 190° South 171 197 11,100 -161 Climbing KMKE
Tue 08:42:33 PM 43.5000 -88.1167 200° South 177 204 10,700 -507 Descending KMKE
Tue 08:42:50 PM 43.4800 -88.1117 170° South 178 205 10,500 -608 Descending Chicago Center
Tue 08:43:52 PM 43.4275 -88.1233 189° South 187 215 9,900 -629 Descending Chicago Center
Tue 08:44:54 PM 43.3731 -88.1031 165° South 206 237 9,200 -677 Descending Chicago Center
Tue 08:45:56 PM 43.3192 -88.0761 160° South 206 237 8,500 -823 Descending Chicago Center
Tue 08:46:58 PM 43.2669 -88.0489 159° South 199 229 7,500 -919 Descending Chicago Center
Tue 08:48:00 PM 43.2192 -88.0264 161° South 187 215 6,600 -1,113 Descending Chicago Center
Tue 08:49:02 PM 43.1658 -88.0022 162° South 174 200 5,200 -1,210 Descending Chicago Center
Tue 08:50:04 PM 43.1233 -87.9819 161° South 165 190 4,100 -982 Descending Chicago Center
Tue 08:50:52 PM 43.1000 -87.9667 154° Southeast 155 178 3,400 -833 Descending KMKE
Tue 08:51:52 PM 43.0500 -87.9500 166° South 151 174 2,600 -684 Descending KMKE
Tue 08:52:46 PM 43.0167 -87.9333 160° South 140 161 2,100 -263 Descending KMKE
Tue 08:53:46 PM 42.9833 -87.9667 216° Southwest 137 158 2,100 -48 Level KMKE
Tue 08:54:52 PM 42.9500 -87.9667 180° South 122 140 2,000 -381 Descending KMKE
Tue 08:55:52 PM 42.9333 -87.9333 124° Southeast 114 131 1,300 -700 Descending KMKE
Tue 08:58:00 PM 42.9333 -87.8833 90° East  Level FlightAware Approximate

Login

Don't have an account? Register now (free) for customized features, flight alerts, and more!